createdAt,value
2017-10-29T00:01:44.591Z,3.50
2017-10-29T00:04:17.498Z,4.10
2017-10-29T00:06:50.337Z,3.60
2017-10-29T00:09:24.037Z,4.20
2017-10-29T00:11:57.805Z,3.70
2017-10-29T00:14:31.001Z,3.40
2017-10-29T00:17:03.727Z,4.20
2017-10-29T00:19:37.189Z,3.93
2017-10-29T00:22:10.352Z,4.70
2017-10-29T00:24:43.157Z,5.20
2017-10-29T00:27:15.891Z,4.07
2017-10-29T00:29:50.001Z,3.80
2017-10-29T00:32:22.758Z,3.40
2017-10-29T00:34:55.372Z,4.57
2017-10-29T00:37:28.641Z,3.70
2017-10-29T00:40:02.084Z,4.13
2017-10-29T00:42:35.532Z,4.37
2017-10-29T00:45:08.224Z,4.43
2017-10-29T00:47:40.952Z,3.50
2017-10-29T00:50:13.802Z,3.87
2017-10-29T00:52:47.864Z,3.83
2017-10-29T00:55:20.810Z,3.90
2017-10-29T00:57:54.069Z,3.47
2017-10-29T01:00:27.584Z,3.30
2017-10-29T01:03:01.653Z,3.90
2017-10-29T01:05:34.488Z,3.40
2017-10-29T01:08:07.411Z,2.50
2017-10-29T01:10:40.350Z,2.60
2017-10-29T01:13:12.946Z,2.50
2017-10-29T01:15:45.963Z,1.80
2017-10-29T01:18:18.786Z,2.60
2017-10-29T01:20:51.262Z,1.90
2017-10-29T01:23:23.992Z,2.20
2017-10-29T01:25:57.463Z,2.10
2017-10-29T01:28:30.020Z,1.93
2017-10-29T01:31:03.257Z,2.00
2017-10-29T01:33:36.021Z,1.63
2017-10-29T01:36:09.391Z,2.23
2017-10-29T01:38:41.833Z,1.70
2017-10-29T01:41:14.352Z,1.60
2017-10-29T01:43:46.997Z,2.23
2017-10-29T01:46:20.423Z,2.10
2017-10-29T01:48:52.881Z,1.80
2017-10-29T01:51:26.185Z,2.00
2017-10-29T01:53:59.456Z,1.70
2017-10-29T01:56:32.247Z,1.53
2017-10-29T01:59:04.680Z,1.70
2017-10-29T02:01:38.105Z,1.70
2017-10-29T02:04:10.837Z,2.30
2017-10-29T02:06:43.482Z,2.00
2017-10-29T02:09:17.499Z,2.03
2017-10-29T02:11:50.359Z,2.03
2017-10-29T02:14:22.776Z,2.90
2017-10-29T02:16:56.048Z,2.37
2017-10-29T02:19:29.316Z,1.90
2017-10-29T02:22:02.068Z,1.67
2017-10-29T02:24:35.069Z,2.10
2017-10-29T02:27:07.693Z,2.33
2017-10-29T02:29:40.785Z,2.30
2017-10-29T02:32:14.082Z,1.70
2017-10-29T02:34:46.843Z,2.00
2017-10-29T02:37:20.153Z,2.13
2017-10-29T02:39:52.831Z,1.50
2017-10-29T02:42:26.010Z,1.70
2017-10-29T02:44:58.689Z,2.10
2017-10-29T02:47:31.383Z,1.47
2017-10-29T02:50:05.425Z,2.30
2017-10-29T02:52:38.170Z,1.60
2017-10-29T02:55:10.575Z,1.57
2017-10-29T02:57:43.487Z,1.50
2017-10-29T03:00:16.909Z,1.70
2017-10-29T03:02:49.479Z,1.53
2017-10-29T03:05:23.541Z,1.30
2017-10-29T03:07:56.297Z,1.50
2017-10-29T03:10:28.850Z,1.30
2017-10-29T03:13:01.315Z,1.30
2017-10-29T03:15:34.683Z,1.30
2017-10-29T03:18:07.333Z,1.40
2017-10-29T03:20:40.704Z,1.63
2017-10-29T03:23:13.339Z,1.30
2017-10-29T03:25:47.240Z,1.00
2017-10-29T03:28:19.875Z,1.20
2017-10-29T03:30:52.811Z,1.37
2017-10-29T03:33:25.711Z,1.10
2017-10-29T03:35:58.636Z,1.63
2017-10-29T03:38:31.672Z,1.30
2017-10-29T03:41:04.749Z,2.10
2017-10-29T03:43:37.658Z,1.20
2017-10-29T03:46:11.343Z,1.40
2017-10-29T03:48:44.073Z,1.47
2017-10-29T03:51:16.518Z,1.13
2017-10-29T03:53:50.094Z,1.17
2017-10-29T03:56:22.838Z,1.20
2017-10-29T03:58:55.633Z,1.53
2017-10-29T04:01:28.696Z,1.10
2017-10-29T04:04:01.137Z,1.57
2017-10-29T04:06:33.546Z,1.43
2017-10-29T04:09:06.222Z,1.33
2017-10-29T04:11:38.807Z,1.10
2017-10-29T04:14:12.003Z,1.10
2017-10-29T04:16:44.854Z,1.33
2017-10-29T04:19:18.769Z,1.23
2017-10-29T04:21:51.662Z,1.23
2017-10-29T04:24:24.330Z,1.50
2017-10-29T04:26:57.612Z,1.20
2017-10-29T04:29:30.899Z,1.20
2017-10-29T04:32:04.236Z,1.00
2017-10-29T04:34:37.221Z,1.40
2017-10-29T04:37:10.097Z,1.20
2017-10-29T04:39:42.725Z,1.30
2017-10-29T04:42:16.149Z,1.30
2017-10-29T04:44:48.684Z,1.00
2017-10-29T04:47:21.633Z,0.90
2017-10-29T04:49:54.772Z,1.00
2017-10-29T04:52:27.397Z,1.30
2017-10-29T04:55:00.896Z,1.00
2017-10-29T04:57:33.618Z,1.00
2017-10-29T05:00:07.785Z,0.80
2017-10-29T05:02:40.501Z,1.13
2017-10-29T05:05:13.041Z,1.10
2017-10-29T05:07:45.424Z,0.80
2017-10-29T05:10:18.022Z,0.90
2017-10-29T05:12:51.315Z,1.10
2017-10-29T05:15:23.822Z,1.40
2017-10-29T05:17:57.185Z,1.30
2017-10-29T05:20:30.535Z,1.60
2017-10-29T05:23:03.148Z,1.07
2017-10-29T05:25:36.478Z,1.10
2017-10-29T05:28:09.806Z,1.10
2017-10-29T05:30:42.294Z,0.90
2017-10-29T05:33:14.802Z,1.00
2017-10-29T05:35:48.033Z,1.27
2017-10-29T05:38:20.525Z,0.97
2017-10-29T05:40:53.848Z,0.90
2017-10-29T05:43:26.392Z,0.90
2017-10-29T05:45:59.897Z,1.00
2017-10-29T05:48:32.554Z,1.37
2017-10-29T05:51:05.214Z,1.20
2017-10-29T05:53:37.832Z,0.90
2017-10-29T05:56:10.413Z,1.00
2017-10-29T05:58:42.998Z,1.00
2017-10-29T06:01:15.970Z,1.00
2017-10-29T06:03:49.529Z,1.07
2017-10-29T06:06:23.021Z,1.00
2017-10-29T06:08:56.338Z,1.23
2017-10-29T06:11:29.661Z,0.93
2017-10-29T06:14:02.236Z,1.17
2017-10-29T06:16:35.684Z,0.90
2017-10-29T06:19:09.017Z,0.93
2017-10-29T06:21:41.740Z,1.03
2017-10-29T06:24:14.761Z,0.80
2017-10-29T06:26:48.121Z,1.00
2017-10-29T06:29:21.476Z,0.90
2017-10-29T06:31:54.306Z,0.97
2017-10-29T06:34:26.893Z,0.90
2017-10-29T06:37:00.238Z,0.90
2017-10-29T06:39:33.601Z,1.10
2017-10-29T06:42:06.155Z,0.80
2017-10-29T06:44:39.334Z,0.90
2017-10-29T06:47:12.367Z,0.87
2017-10-29T06:49:45.814Z,1.00
2017-10-29T06:52:18.274Z,1.20
2017-10-29T06:54:50.700Z,1.07
2017-10-29T06:57:23.158Z,0.90
2017-10-29T06:59:55.696Z,1.10
2017-10-29T07:02:28.131Z,0.90
2017-10-29T07:05:00.505Z,1.00
2017-10-29T07:07:33.160Z,0.97
2017-10-29T07:10:05.978Z,1.10
2017-10-29T07:12:38.974Z,1.10
2017-10-29T07:15:12.152Z,0.90
2017-10-29T07:17:45.976Z,1.10
2017-10-29T07:20:19.693Z,1.00
2017-10-29T07:22:59.681Z,0.87
2017-10-29T07:25:32.925Z,1.10
2017-10-29T07:28:05.350Z,1.00
2017-10-29T07:30:37.869Z,1.03
2017-10-29T07:33:11.276Z,1.10
2017-10-29T07:35:43.704Z,0.90
2017-10-29T07:38:17.768Z,0.80
2017-10-29T07:40:51.284Z,1.20
2017-10-29T07:43:24.890Z,1.13
2017-10-29T07:45:57.579Z,1.20
2017-10-29T07:48:30.158Z,0.90
2017-10-29T07:51:02.850Z,1.30
2017-10-29T07:53:36.162Z,0.87
2017-10-29T07:56:09.391Z,1.20
2017-10-29T07:58:43.541Z,0.90
2017-10-29T08:01:16.473Z,1.10
2017-10-29T08:03:50.568Z,0.97
2017-10-29T08:06:23.373Z,1.20
2017-10-29T08:08:55.854Z,1.33
2017-10-29T08:11:29.956Z,1.20
2017-10-29T08:14:03.508Z,1.00
2017-10-29T08:16:36.827Z,1.33
2017-10-29T08:19:10.039Z,1.20
2017-10-29T08:21:42.684Z,1.10
2017-10-29T08:24:15.402Z,1.30
2017-10-29T08:26:48.662Z,1.00
2017-10-29T08:29:21.866Z,1.10
2017-10-29T08:31:54.428Z,1.23
2017-10-29T08:34:27.814Z,1.07
2017-10-29T08:37:00.249Z,0.90
2017-10-29T08:39:32.857Z,0.90
2017-10-29T08:42:05.334Z,1.13
2017-10-29T08:44:38.694Z,1.23
2017-10-29T08:47:11.422Z,1.23
2017-10-29T08:49:43.921Z,1.23
2017-10-29T08:52:16.500Z,1.23
2017-10-29T08:54:48.942Z,1.27
2017-10-29T08:57:21.471Z,1.20
2017-10-29T08:59:54.891Z,1.30
2017-10-29T09:02:28.093Z,1.37
2017-10-29T09:05:00.884Z,1.07
2017-10-29T09:07:34.865Z,1.00
2017-10-29T09:10:07.665Z,0.90
2017-10-29T09:12:40.278Z,1.03
2017-10-29T09:15:13.052Z,1.07
2017-10-29T09:17:45.534Z,1.00
2017-10-29T09:20:18.135Z,1.00
2017-10-29T09:22:52.171Z,1.20
2017-10-29T09:25:24.784Z,1.00
2017-10-29T09:27:57.820Z,0.90
2017-10-29T09:30:30.754Z,1.00
2017-10-29T09:33:03.572Z,1.00
2017-10-29T09:35:36.303Z,0.90
2017-10-29T09:38:09.753Z,0.97
2017-10-29T09:40:42.882Z,1.00
2017-10-29T09:43:15.621Z,0.90
2017-10-29T09:45:56.060Z,1.10
2017-10-29T09:48:29.050Z,1.07
2017-10-29T09:51:02.383Z,0.90
2017-10-29T09:53:35.186Z,1.10
2017-10-29T09:56:07.810Z,1.10
2017-10-29T09:58:40.380Z,1.10
2017-10-29T10:01:13.713Z,0.80
2017-10-29T10:03:46.102Z,1.00
2017-10-29T10:06:18.665Z,0.87
2017-10-29T10:08:52.709Z,1.20
2017-10-29T10:11:26.269Z,0.83
2017-10-29T10:13:59.063Z,1.10
2017-10-29T10:16:32.393Z,1.50
2017-10-29T10:19:05.602Z,0.90
2017-10-29T10:21:38.455Z,0.90
2017-10-29T10:24:11.696Z,0.97
2017-10-29T10:26:44.989Z,0.90
2017-10-29T10:29:18.303Z,0.90
2017-10-29T10:31:50.701Z,0.83
2017-10-29T10:34:24.083Z,1.00
2017-10-29T10:36:57.447Z,0.90
2017-10-29T10:39:30.649Z,0.97
2017-10-29T10:42:03.154Z,1.20
2017-10-29T10:44:37.115Z,1.37
2017-10-29T10:47:10.055Z,1.20
2017-10-29T10:49:43.787Z,0.90
2017-10-29T10:52:16.450Z,1.00
2017-10-29T10:54:49.540Z,0.90
2017-10-29T10:57:22.884Z,1.20
2017-10-29T10:59:55.373Z,1.10
2017-10-29T11:02:28.683Z,0.97
2017-10-29T11:05:01.896Z,0.90
2017-10-29T11:07:34.447Z,1.20
2017-10-29T11:10:07.666Z,1.27
2017-10-29T11:12:41.039Z,1.20
2017-10-29T11:15:14.139Z,1.00
2017-10-29T11:17:47.441Z,1.30
2017-10-29T11:20:20.644Z,1.60
2017-10-29T11:22:54.025Z,1.10
2017-10-29T11:25:27.324Z,0.90
2017-10-29T11:27:59.730Z,1.23
2017-10-29T11:30:33.740Z,1.03
2017-10-29T11:33:06.423Z,1.20
2017-10-29T11:35:39.656Z,2.10
2017-10-29T11:38:13.678Z,1.87
2017-10-29T11:40:46.187Z,2.53
2017-10-29T11:43:19.496Z,1.83
2017-10-29T11:45:53.028Z,2.03
2017-10-29T11:48:26.632Z,2.50
2017-10-29T11:50:59.972Z,2.50
2017-10-29T11:53:33.879Z,2.60
2017-10-29T11:56:07.810Z,2.03
2017-10-29T11:58:40.297Z,2.50
2017-10-29T12:01:13.187Z,3.10
2017-10-29T12:03:46.411Z,2.33
2017-10-29T12:06:19.384Z,2.63
2017-10-29T12:08:52.550Z,2.97
2017-10-29T12:11:26.046Z,2.60
2017-10-29T12:13:59.473Z,2.43
2017-10-29T12:16:32.900Z,2.00
2017-10-29T12:19:07.737Z,2.10
2017-10-29T12:21:41.372Z,1.83
2017-10-29T12:24:14.430Z,2.10
2017-10-29T12:26:47.771Z,1.83
2017-10-29T12:29:21.671Z,2.87
2017-10-29T12:31:54.732Z,2.30
2017-10-29T12:34:28.069Z,1.77
2017-10-29T12:37:01.167Z,2.00
2017-10-29T12:39:34.550Z,2.33
2017-10-29T12:42:08.950Z,2.40
2017-10-29T12:44:42.540Z,2.10
2017-10-29T12:47:16.103Z,2.53
2017-10-29T12:49:49.324Z,2.43
2017-10-29T12:52:22.389Z,2.53
2017-10-29T12:54:56.689Z,2.90
2017-10-29T12:57:29.966Z,2.60
2017-10-29T13:00:03.242Z,1.73
2017-10-29T13:02:36.514Z,2.10
2017-10-29T13:05:09.965Z,2.47
2017-10-29T13:07:43.930Z,2.03
2017-10-29T13:10:16.786Z,2.00
2017-10-29T13:12:49.868Z,1.90
2017-10-29T13:15:23.299Z,1.63
2017-10-29T13:17:56.637Z,2.37
2017-10-29T13:20:30.629Z,2.87
2017-10-29T13:23:04.067Z,2.93
2017-10-29T13:25:37.584Z,3.00
2017-10-29T13:28:11.005Z,2.90
2017-10-29T13:30:44.233Z,2.13
2017-10-29T13:33:17.356Z,2.30
2017-10-29T13:35:51.382Z,3.00
2017-10-29T13:38:24.827Z,2.07
2017-10-29T13:40:58.284Z,4.43
2017-10-29T13:43:31.870Z,3.03
2017-10-29T13:46:04.910Z,3.80
2017-10-29T13:48:39.103Z,3.27
2017-10-29T13:51:13.201Z,3.13
2017-10-29T13:53:46.451Z,2.93
2017-10-29T13:56:18.949Z,2.57
2017-10-29T13:58:52.212Z,2.73
2017-10-29T14:01:24.780Z,2.53
2017-10-29T14:03:58.175Z,3.00
2017-10-29T14:06:31.402Z,2.73
2017-10-29T14:09:03.834Z,1.90
2017-10-29T14:11:37.870Z,1.63
2017-10-29T14:14:10.454Z,2.70
2017-10-29T14:16:43.740Z,3.90
2017-10-29T14:19:17.081Z,2.40
2017-10-29T14:21:50.446Z,2.10
2017-10-29T14:24:23.223Z,2.80
2017-10-29T14:26:56.144Z,2.60
2017-10-29T14:29:29.677Z,2.00
2017-10-29T14:32:03.818Z,2.80
2017-10-29T14:34:37.365Z,3.23
2017-10-29T14:37:10.551Z,3.30
2017-10-29T14:39:43.182Z,3.07
2017-10-29T14:42:16.452Z,3.73
2017-10-29T14:44:49.629Z,3.27
2017-10-29T14:47:22.229Z,3.97
2017-10-29T14:49:55.435Z,2.70
2017-10-29T14:52:29.128Z,3.27
2017-10-29T14:55:02.383Z,2.50
2017-10-29T14:57:35.748Z,3.53
2017-10-29T15:00:09.088Z,2.97
2017-10-29T15:02:42.337Z,3.70
2017-10-29T15:05:15.131Z,2.90
2017-10-29T15:07:48.750Z,2.97
2017-10-29T15:10:21.752Z,3.57
2017-10-29T15:12:54.180Z,3.97
2017-10-29T15:15:27.721Z,3.50
2017-10-29T15:18:01.403Z,3.10
2017-10-29T15:20:34.070Z,5.20
2017-10-29T15:23:06.562Z,3.77
2017-10-29T15:25:39.740Z,3.77
2017-10-29T15:28:13.073Z,4.47
2017-10-29T15:30:45.531Z,3.47
2017-10-29T15:33:18.786Z,4.33
2017-10-29T15:35:52.901Z,3.10
2017-10-29T15:38:26.271Z,2.30
2017-10-29T15:40:59.675Z,3.10
2017-10-29T15:43:32.925Z,3.40
2017-10-29T15:46:06.639Z,3.80
2017-10-29T15:48:39.807Z,3.10
2017-10-29T15:51:13.598Z,3.40
2017-10-29T15:53:47.192Z,3.20
2017-10-29T15:56:22.029Z,3.40
2017-10-29T15:58:55.042Z,3.73
2017-10-29T16:01:28.768Z,3.73
2017-10-29T16:04:01.638Z,3.63
2017-10-29T16:06:35.117Z,3.07
2017-10-29T16:09:08.054Z,4.00
2017-10-29T16:11:41.364Z,3.57
2017-10-29T16:14:14.426Z,2.37
2017-10-29T16:16:48.538Z,3.90
2017-10-29T16:19:21.072Z,4.10
2017-10-29T16:21:54.518Z,3.10
2017-10-29T16:24:28.547Z,3.20
2017-10-29T16:27:01.894Z,3.43
2017-10-29T16:29:34.626Z,3.00
2017-10-29T16:32:07.907Z,3.87
2017-10-29T16:34:41.083Z,4.10
2017-10-29T16:37:14.341Z,4.80
2017-10-29T16:39:48.526Z,5.27
2017-10-29T16:42:22.425Z,3.90
2017-10-29T16:44:55.626Z,2.60
2017-10-29T16:47:28.448Z,4.40
2017-10-29T16:50:02.117Z,3.80
2017-10-29T16:52:35.100Z,3.43
2017-10-29T16:55:08.759Z,3.13
2017-10-29T16:57:42.391Z,3.17
2017-10-29T17:00:15.192Z,3.37
2017-10-29T17:02:48.254Z,4.50
2017-10-29T17:05:21.907Z,3.70
2017-10-29T17:07:55.220Z,3.90
2017-10-29T17:10:28.288Z,3.73
2017-10-29T17:13:02.038Z,3.40
2017-10-29T17:15:35.396Z,3.17
2017-10-29T17:18:16.064Z,4.50
2017-10-29T17:20:49.641Z,4.50
2017-10-29T17:23:23.917Z,3.47
2017-10-29T17:25:57.835Z,2.43
2017-10-29T17:28:31.637Z,3.10
2017-10-29T17:31:06.177Z,3.63
2017-10-29T17:33:40.240Z,3.00
2017-10-29T17:36:14.538Z,3.23
2017-10-29T17:38:49.147Z,4.47
2017-10-29T17:41:23.519Z,3.27
2017-10-29T17:43:57.613Z,3.80
2017-10-29T17:46:32.867Z,2.90
2017-10-29T17:49:07.618Z,2.43
2017-10-29T17:51:41.928Z,3.20
2017-10-29T17:54:15.919Z,3.20
2017-10-29T17:56:51.186Z,2.90
2017-10-29T17:59:25.564Z,3.90
2017-10-29T18:01:59.832Z,3.70
2017-10-29T18:04:33.977Z,3.97
2017-10-29T18:07:09.282Z,3.50
2017-10-29T18:09:44.415Z,4.13
2017-10-29T18:12:18.963Z,3.60
2017-10-29T18:14:53.349Z,3.17
2017-10-29T18:17:28.633Z,4.33
2017-10-29T18:20:03.060Z,4.33
2017-10-29T18:22:38.273Z,4.30
2017-10-29T18:25:13.511Z,6.30
2017-10-29T18:27:48.279Z,3.67
2017-10-29T18:30:22.322Z,3.13
2017-10-29T18:32:56.776Z,3.60
2017-10-29T18:35:31.036Z,2.80
2017-10-29T18:38:05.391Z,3.60
2017-10-29T18:40:39.766Z,3.93
2017-10-29T18:43:14.318Z,3.60
2017-10-29T18:45:48.486Z,3.50
2017-10-29T18:48:22.847Z,3.40
2017-10-29T18:50:57.128Z,2.80
2017-10-29T18:53:31.668Z,3.57
2017-10-29T18:56:06.562Z,3.93
2017-10-29T18:58:41.230Z,3.60
2017-10-29T19:01:15.530Z,3.13
2017-10-29T19:03:50.222Z,4.50
2017-10-29T19:06:24.433Z,3.63
2017-10-29T19:08:59.710Z,3.50
2017-10-29T19:11:34.108Z,2.87
2017-10-29T19:14:08.616Z,3.83
2017-10-29T19:16:42.771Z,3.37
2017-10-29T19:19:17.850Z,3.03
2017-10-29T19:21:52.269Z,3.60
2017-10-29T19:24:26.628Z,4.40
2017-10-29T19:27:01.019Z,3.20
2017-10-29T19:29:35.530Z,3.40
2017-10-29T19:32:09.681Z,3.00
2017-10-29T19:34:43.902Z,2.90
2017-10-29T19:37:17.982Z,3.77
2017-10-29T19:39:53.596Z,4.93
2017-10-29T19:42:27.515Z,4.10
2017-10-29T19:45:01.980Z,2.83
2017-10-29T19:47:36.258Z,3.13
2017-10-29T19:50:10.741Z,3.13
2017-10-29T19:52:45.801Z,3.13
2017-10-29T19:55:21.064Z,3.70
2017-10-29T19:57:56.264Z,3.97
2017-10-29T20:00:31.620Z,3.70
2017-10-29T20:03:06.168Z,3.70
2017-10-29T20:05:40.981Z,3.03
2017-10-29T20:08:16.561Z,3.03
2017-10-29T20:10:51.229Z,2.70
2017-10-29T20:13:25.545Z,3.20
2017-10-29T20:16:00.730Z,2.50
2017-10-29T20:18:35.153Z,2.83
2017-10-29T20:21:09.665Z,3.23
2017-10-29T20:23:43.949Z,3.87
2017-10-29T20:26:18.379Z,3.50
2017-10-29T20:28:52.668Z,3.20
2017-10-29T20:31:28.003Z,2.87
2017-10-29T20:34:02.069Z,3.50
2017-10-29T20:36:36.557Z,2.77
2017-10-29T20:39:10.859Z,3.43
2017-10-29T20:41:45.406Z,2.47
2017-10-29T20:44:20.224Z,3.93
2017-10-29T20:46:54.888Z,2.83
2017-10-29T20:49:29.187Z,3.60
2017-10-29T20:52:03.535Z,4.03
2017-10-29T20:54:38.435Z,3.60
2017-10-29T20:57:14.361Z,2.87
2017-10-29T20:59:48.428Z,4.00
2017-10-29T21:02:22.843Z,3.80
2017-10-29T21:04:57.159Z,2.57
2017-10-29T21:07:31.443Z,3.00
2017-10-29T21:10:05.653Z,3.30
2017-10-29T21:12:40.158Z,2.90
2017-10-29T21:15:14.522Z,4.73
2017-10-29T21:17:48.950Z,4.07
2017-10-29T21:20:23.166Z,3.60
2017-10-29T21:22:57.706Z,3.80
2017-10-29T21:25:31.849Z,2.80
2017-10-29T21:28:06.328Z,2.60
2017-10-29T21:30:40.641Z,2.60
2017-10-29T21:33:14.994Z,2.40
2017-10-29T21:35:49.102Z,2.90
2017-10-29T21:38:23.642Z,3.50
2017-10-29T21:40:57.661Z,3.37
2017-10-29T21:43:31.401Z,2.50
2017-10-29T21:46:04.865Z,2.33
2017-10-29T21:48:37.662Z,2.80
2017-10-29T21:51:10.929Z,3.30
2017-10-29T21:53:43.799Z,2.30
2017-10-29T21:56:17.210Z,2.10
2017-10-29T21:58:50.454Z,4.07
2017-10-29T22:01:23.811Z,2.57
2017-10-29T22:03:58.324Z,3.23
2017-10-29T22:06:31.335Z,3.20
2017-10-29T22:09:04.581Z,3.90
2017-10-29T22:11:37.859Z,2.80
2017-10-29T22:14:10.271Z,3.20
2017-10-29T22:16:43.351Z,4.67
2017-10-29T22:19:16.673Z,3.90
2017-10-29T22:21:49.075Z,3.73
2017-10-29T22:24:22.422Z,3.30
2017-10-29T22:26:56.424Z,3.13
2017-10-29T22:29:29.726Z,2.53
2017-10-29T22:32:02.417Z,2.63
2017-10-29T22:34:35.870Z,2.87
2017-10-29T22:37:09.001Z,3.70
2017-10-29T22:39:42.281Z,2.90
2017-10-29T22:42:15.408Z,2.50
2017-10-29T22:44:48.792Z,3.23
2017-10-29T22:47:21.945Z,4.30
2017-10-29T22:49:54.343Z,3.53
2017-10-29T22:52:27.577Z,2.60
2017-10-29T22:55:07.669Z,2.53
2017-10-29T22:57:41.066Z,4.03
2017-10-29T23:00:13.698Z,3.93
2017-10-29T23:02:46.801Z,4.10
2017-10-29T23:05:38.437Z,2.70
2017-10-29T23:08:11.591Z,3.30
2017-10-29T23:10:44.874Z,3.57
2017-10-29T23:13:18.875Z,2.37
2017-10-29T23:15:51.492Z,2.80
2017-10-29T23:18:24.757Z,3.50
2017-10-29T23:20:58.176Z,3.53
2017-10-29T23:23:31.319Z,2.53
2017-10-29T23:26:03.694Z,3.37
2017-10-29T23:28:36.964Z,3.50
2017-10-29T23:31:10.231Z,2.40
2017-10-29T23:33:43.481Z,3.30
2017-10-29T23:36:16.033Z,3.27
2017-10-29T23:38:49.139Z,3.83
2017-10-29T23:41:22.403Z,3.00
2017-10-29T23:43:54.921Z,3.53
2017-10-29T23:46:28.081Z,3.00
2017-10-29T23:49:01.197Z,3.20
2017-10-29T23:51:33.746Z,3.73
2017-10-29T23:54:07.404Z,3.50
2017-10-29T23:56:41.154Z,4.00
2017-10-29T23:59:13.777Z,3.10
